CW5841 Weather Reports


Display with metric or nautical units.
time (UTC)temp
F
wind
direction
speed
MPH
gust
MPH
rain 1hr
in
rain 24hr
in
rain mn
in
humidity
%
barometer
mb
20190217130104 52 165 1.0 12.0 0.00 0.00 0.00 85 1010.8
20190217120604 51 214 1.0 8.0 0.00 0.00 0.00 82 1011.0
20190217120104 51 186 7.0 14.0 0.00 0.00 0.00 81 1010.9
20190217110604 50 182 3.0 12.0 0.00 0.00 0.00 84 1010.8
20190217100604 47 153 3.0 8.0 0.00 0.00 0.00 92 1010.8
20190217090604 45 189 1.0 8.0 0.00 0.00 0.00 97 1010.8
20190217090104 45 144 5.0 14.0 0.00 0.00 0.00 98 1010.6
20190217080604 43 149 7.0 12.0 0.00 0.00 0.00 100 1010.9
20190217070604 43 131 3.0 8.0 0.00 0.00 0.00 100 1011.7
20190217070104 42 150 4.0 12.0 0.00 0.00 0.00 100 1011.7
20190217050604 46 184 2.0 6.0 0.00 0.00 0.00 100 1012.7
20190217050104 46 132 5.0 14.0 0.00 0.00 0.00 100 1012.8
20190217040604 46 37 6.0 12.0 0.00 0.00 0.00 98 1013.5
20190217040104 46 105 5.0 10.0 0.00 0.00 0.00 98 1013.5
20190217030604 47 140 2.0 6.0 0.00 0.00 0.00 97 1014.7
20190217030104 47 176 2.0 12.0 0.00 0.00 0.00 97 1014.8
20190217020604 47 171 6.0 10.0 0.00 0.00 0.00 95 1015.3
20190217020104 47 187 6.0 16.0 0.00 0.00 0.00 94 1015.3
20190217010604 48 126 3.0 15.0 0.00 0.00 0.00 95 1015.7
20190217010104 48 159 3.0 14.0 0.00 0.00 0.00 94 1015.7
20190217000605 48 188 3.0 12.0 0.00 0.00 0.00 96 1016.4
20190217000104 48 181 3.0 16.0 0.00 0.00 0.00 96 1016.6
20190216230104 50 206 4.0 16.0 0.00 0.00 0.00 92 1017.0
20190216220104 51 218 1.0 16.0 0.00 0.00 0.00 93 1017.0
20190216210104 52 154 6.0 14.0 0.00 0.00 0.00 94 1017.5
20190216200104 52 177 2.0 10.0 0.00 0.00 0.00 94 1017.8
20190216190105 51 155 1.0 10.0 0.00 0.00 0.00 93 1017.9
20190216180604 51 245 4.0 9.0 0.00 0.00 0.00 91 1017.9
20190216170104 51 187 1.0 8.0 0.00 0.00 0.00 84 1017.7
20190216160604 52 153 0.0 6.0 0.00 0.00 0.00 80 1017.9
20190216160105 52 147 2.0 12.0 0.00 0.00 0.00 80 1018.1
20190216150104 51 230 1.0 14.0 0.00 0.00 0.00 79 1018.4
20190216140604 53 187 3.0 12.0 0.00 0.00 0.00 74 1019.1
20190216140104 53 213 5.0 14.0 0.00 0.00 0.00 73 1019.2